sensor_id;sensor_type;location;lat;lon;timestamp;P1;durP1;ratioP1;P2;durP2;ratioP2
60344;SDS011;46188;52.324;8.032;2023-03-13T00:00:50;18.90;;;4.20;;
60344;SDS011;46188;52.324;8.032;2023-03-13T00:03:16;17.25;;;4.05;;
60344;SDS011;46188;52.324;8.032;2023-03-13T00:05:42;16.02;;;5.30;;
60344;SDS011;46188;52.324;8.032;2023-03-13T00:08:07;17.15;;;3.97;;
60344;SDS011;46188;52.324;8.032;2023-03-13T00:10:35;19.52;;;4.15;;
60344;SDS011;46188;52.324;8.032;2023-03-13T00:13:01;16.17;;;4.28;;
60344;SDS011;46188;52.324;8.032;2023-03-13T00:15:26;19.02;;;4.75;;
60344;SDS011;46188;52.324;8.032;2023-03-13T00:17:51;25.20;;;5.13;;
60344;SDS011;46188;52.324;8.032;2023-03-13T00:20:16;19.90;;;4.65;;
60344;SDS011;46188;52.324;8.032;2023-03-13T00:22:42;20.15;;;4.60;;
60344;SDS011;46188;52.324;8.032;2023-03-13T00:25:07;20.92;;;3.92;;
60344;SDS011;46188;52.324;8.032;2023-03-13T00:27:33;21.02;;;4.82;;
60344;SDS011;46188;52.324;8.032;2023-03-13T00:29:58;21.60;;;4.50;;
60344;SDS011;46188;52.324;8.032;2023-03-13T00:32:24;16.55;;;4.90;;
60344;SDS011;46188;52.324;8.032;2023-03-13T00:34:49;19.15;;;4.05;;
60344;SDS011;46188;52.324;8.032;2023-03-13T00:37:14;18.15;;;3.90;;
60344;SDS011;46188;52.324;8.032;2023-03-13T00:39:39;18.25;;;4.07;;
60344;SDS011;46188;52.324;8.032;2023-03-13T00:42:05;18.23;;;4.32;;
60344;SDS011;46188;52.324;8.032;2023-03-13T00:44:30;23.75;;;4.43;;
60344;SDS011;46188;52.324;8.032;2023-03-13T00:46:55;16.52;;;4.10;;
60344;SDS011;46188;52.324;8.032;2023-03-13T00:49:21;13.40;;;4.22;;
60344;SDS011;46188;52.324;8.032;2023-03-13T00:51:46;14.23;;;4.28;;
60344;SDS011;46188;52.324;8.032;2023-03-13T00:54:11;19.33;;;4.45;;
60344;SDS011;46188;52.324;8.032;2023-03-13T00:56:36;21.75;;;4.43;;
60344;SDS011;46188;52.324;8.032;2023-03-13T00:59:02;16.40;;;3.47;;
60344;SDS011;46188;52.324;8.032;2023-03-13T01:01:28;18.30;;;4.82;;
60344;SDS011;46188;52.324;8.032;2023-03-13T01:03:56;14.35;;;3.95;;
60344;SDS011;46188;52.324;8.032;2023-03-13T01:06:25;12.10;;;3.65;;
60344;SDS011;46188;52.324;8.032;2023-03-13T01:08:52;13.05;;;3.40;;
60344;SDS011;46188;52.324;8.032;2023-03-13T01:11:19;16.65;;;3.80;;
60344;SDS011;46188;52.324;8.032;2023-03-13T01:13:46;17.38;;;3.97;;
60344;SDS011;46188;52.324;8.032;2023-03-13T01:16:13;15.73;;;3.58;;
60344;SDS011;46188;52.324;8.032;2023-03-13T01:18:42;16.92;;;3.67;;
60344;SDS011;46188;52.324;8.032;2023-03-13T01:21:10;19.10;;;3.97;;
60344;SDS011;46188;52.324;8.032;2023-03-13T01:23:36;16.50;;;4.35;;
60344;SDS011;46188;52.324;8.032;2023-03-13T01:26:02;17.85;;;3.90;;
60344;SDS011;46188;52.324;8.032;2023-03-13T01:28:29;20.40;;;5.20;;
60344;SDS011;46188;52.324;8.032;2023-03-13T01:30:54;20.10;;;3.72;;
60344;SDS011;46188;52.324;8.032;2023-03-13T01:33:19;14.25;;;3.42;;
60344;SDS011;46188;52.324;8.032;2023-03-13T01:35:44;23.95;;;6.13;;
60344;SDS011;46188;52.324;8.032;2023-03-13T01:38:10;22.15;;;3.85;;
60344;SDS011;46188;52.324;8.032;2023-03-13T01:40:39;17.40;;;3.85;;
60344;SDS011;46188;52.324;8.032;2023-03-13T01:43:18;20.50;;;4.22;;
60344;SDS011;46188;52.324;8.032;2023-03-13T01:48:39;19.50;;;3.90;;
60344;SDS011;46188;52.324;8.032;2023-03-13T01:51:10;17.30;;;4.38;;
60344;SDS011;46188;52.324;8.032;2023-03-13T01:53:41;18.00;;;4.03;;
60344;SDS011;46188;52.324;8.032;2023-03-13T01:56:11;19.10;;;4.15;;
60344;SDS011;46188;52.324;8.032;2023-03-13T01:58:41;15.98;;;3.67;;
60344;SDS011;46188;52.324;8.032;2023-03-13T02:01:06;19.35;;;5.20;;
60344;SDS011;46188;52.324;8.032;2023-03-13T02:03:33;18.65;;;4.15;;
60344;SDS011;46188;52.324;8.032;2023-03-13T02:06:00;21.52;;;3.72;;
60344;SDS011;46188;52.324;8.032;2023-03-13T02:08:34;18.33;;;4.28;;
60344;SDS011;46188;52.324;8.032;2023-03-13T02:13:36;16.92;;;4.22;;
60344;SDS011;46188;52.324;8.032;2023-03-13T02:16:01;15.55;;;3.83;;
60344;SDS011;46188;52.324;8.032;2023-03-13T02:18:27;13.07;;;3.83;;
60344;SDS011;46188;52.324;8.032;2023-03-13T02:20:54;18.88;;;4.63;;
60344;SDS011;46188;52.324;8.032;2023-03-13T02:23:33;18.80;;;4.18;;
60344;SDS011;46188;52.324;8.032;2023-03-13T02:26:05;21.38;;;4.20;;
60344;SDS011;46188;52.324;8.032;2023-03-13T02:28:31;20.27;;;3.88;;
60344;SDS011;46188;52.324;8.032;2023-03-13T02:30:59;15.25;;;4.65;;
60344;SDS011;46188;52.324;8.032;2023-03-13T02:33:26;15.85;;;4.22;;
60344;SDS011;46188;52.324;8.032;2023-03-13T02:35:54;19.95;;;4.63;;
60344;SDS011;46188;52.324;8.032;2023-03-13T02:38:20;16.58;;;4.10;;
60344;SDS011;46188;52.324;8.032;2023-03-13T02:40:48;15.02;;;5.15;;
60344;SDS011;46188;52.324;8.032;2023-03-13T02:43:17;24.92;;;5.43;;
60344;SDS011;46188;52.324;8.032;2023-03-13T02:48:36;14.63;;;5.32;;
60344;SDS011;46188;52.324;8.032;2023-03-13T02:51:04;19.10;;;4.75;;
60344;SDS011;46188;52.324;8.032;2023-03-13T02:53:34;24.85;;;4.00;;
60344;SDS011;46188;52.324;8.032;2023-03-13T02:55:59;27.10;;;5.80;;
60344;SDS011;46188;52.324;8.032;2023-03-13T02:58:25;23.25;;;4.72;;
60344;SDS011;46188;52.324;8.032;2023-03-13T03:00:50;17.35;;;4.50;;
60344;SDS011;46188;52.324;8.032;2023-03-13T03:03:16;15.98;;;3.85;;
60344;SDS011;46188;52.324;8.032;2023-03-13T03:05:41;19.38;;;5.03;;
60344;SDS011;46188;52.324;8.032;2023-03-13T03:08:07;21.20;;;4.57;;
60344;SDS011;46188;52.324;8.032;2023-03-13T03:10:34;21.65;;;5.13;;
60344;SDS011;46188;52.324;8.032;2023-03-13T03:13:00;19.58;;;4.70;;
60344;SDS011;46188;52.324;8.032;2023-03-13T03:15:25;14.52;;;3.63;;
60344;SDS011;46188;52.324;8.032;2023-03-13T03:17:51;16.38;;;3.92;;
60344;SDS011;46188;52.324;8.032;2023-03-13T03:20:16;13.15;;;4.40;;
60344;SDS011;46188;52.324;8.032;2023-03-13T03:22:41;18.38;;;4.55;;
60344;SDS011;46188;52.324;8.032;2023-03-13T03:25:07;18.70;;;4.75;;
60344;SDS011;46188;52.324;8.032;2023-03-13T03:27:33;16.30;;;4.55;;
60344;SDS011;46188;52.324;8.032;2023-03-13T03:29:58;15.55;;;3.65;;
60344;SDS011;46188;52.324;8.032;2023-03-13T03:32:23;15.02;;;4.30;;
60344;SDS011;46188;52.324;8.032;2023-03-13T03:34:49;19.17;;;4.47;;
60344;SDS011;46188;52.324;8.032;2023-03-13T03:37:14;12.52;;;3.70;;
60344;SDS011;46188;52.324;8.032;2023-03-13T03:39:39;12.55;;;3.72;;
60344;SDS011;46188;52.324;8.032;2023-03-13T03:42:05;11.23;;;3.80;;
60344;SDS011;46188;52.324;8.032;2023-03-13T03:44:30;11.00;;;3.60;;
60344;SDS011;46188;52.324;8.032;2023-03-13T03:46:55;13.25;;;3.95;;
60344;SDS011;46188;52.324;8.032;2023-03-13T03:49:21;9.32;;;3.88;;
60344;SDS011;46188;52.324;8.032;2023-03-13T03:51:46;12.25;;;3.65;;
60344;SDS011;46188;52.324;8.032;2023-03-13T03:54:12;12.48;;;3.67;;
60344;SDS011;46188;52.324;8.032;2023-03-13T03:56:37;11.30;;;4.32;;
60344;SDS011;46188;52.324;8.032;2023-03-13T03:59:03;12.18;;;3.67;;
60344;SDS011;46188;52.324;8.032;2023-03-13T04:01:28;12.38;;;4.30;;
60344;SDS011;46188;52.324;8.032;2023-03-13T04:03:53;8.88;;;3.88;;
60344;SDS011;46188;52.324;8.032;2023-03-13T04:06:18;9.10;;;3.95;;
60344;SDS011;46188;52.324;8.032;2023-03-13T04:08:43;11.45;;;5.00;;
60344;SDS011;46188;52.324;8.032;2023-03-13T04:11:09;11.48;;;3.13;;
60344;SDS011;46188;52.324;8.032;2023-03-13T04:13:34;11.43;;;3.65;;
60344;SDS011;46188;52.324;8.032;2023-03-13T04:16:04;10.55;;;4.10;;
60344;SDS011;46188;52.324;8.032;2023-03-13T04:18:33;8.32;;;3.55;;
60344;SDS011;46188;52.324;8.032;2023-03-13T04:21:02;8.35;;;3.85;;
60344;SDS011;46188;52.324;8.032;2023-03-13T04:23:29;8.98;;;4.05;;
60344;SDS011;46188;52.324;8.032;2023-03-13T04:25:55;10.05;;;4.57;;
60344;SDS011;46188;52.324;8.032;2023-03-13T04:28:20;11.40;;;4.10;;
60344;SDS011;46188;52.324;8.032;2023-03-13T04:30:45;9.73;;;4.32;;
60344;SDS011;46188;52.324;8.032;2023-03-13T04:33:10;11.65;;;4.10;;
60344;SDS011;46188;52.324;8.032;2023-03-13T04:35:35;10.20;;;4.50;;
60344;SDS011;46188;52.324;8.032;2023-03-13T04:38:01;12.23;;;5.75;;
60344;SDS011;46188;52.324;8.032;2023-03-13T04:40:27;9.25;;;5.30;;
60344;SDS011;46188;52.324;8.032;2023-03-13T04:42:52;13.68;;;5.57;;
60344;SDS011;46188;52.324;8.032;2023-03-13T04:45:17;10.88;;;5.68;;
60344;SDS011;46188;52.324;8.032;2023-03-13T04:47:43;7.88;;;5.13;;
60344;SDS011;46188;52.324;8.032;2023-03-13T04:50:09;10.15;;;5.55;;
60344;SDS011;46188;52.324;8.032;2023-03-13T04:52:35;10.70;;;5.07;;
60344;SDS011;46188;52.324;8.032;2023-03-13T04:55:00;11.82;;;6.28;;
60344;SDS011;46188;52.324;8.032;2023-03-13T04:57:25;9.07;;;5.75;;
60344;SDS011;46188;52.324;8.032;2023-03-13T04:59:50;13.45;;;6.07;;
60344;SDS011;46188;52.324;8.032;2023-03-13T05:02:16;15.98;;;6.75;;
60344;SDS011;46188;52.324;8.032;2023-03-13T05:04:41;13.57;;;6.38;;
60344;SDS011;46188;52.324;8.032;2023-03-13T05:07:06;14.85;;;7.50;;
60344;SDS011;46188;52.324;8.032;2023-03-13T05:09:31;12.13;;;7.22;;
60344;SDS011;46188;52.324;8.032;2023-03-13T05:11:57;15.68;;;6.70;;
60344;SDS011;46188;52.324;8.032;2023-03-13T05:14:22;14.25;;;6.68;;
60344;SDS011;46188;52.324;8.032;2023-03-13T05:16:47;11.20;;;6.63;;
60344;SDS011;46188;52.324;8.032;2023-03-13T05:19:12;12.68;;;6.38;;
60344;SDS011;46188;52.324;8.032;2023-03-13T05:21:39;12.20;;;6.60;;
60344;SDS011;46188;52.324;8.032;2023-03-13T05:24:05;14.05;;;8.20;;
60344;SDS011;46188;52.324;8.032;2023-03-13T05:26:30;14.90;;;7.43;;
60344;SDS011;46188;52.324;8.032;2023-03-13T05:28:55;14.30;;;7.38;;
60344;SDS011;46188;52.324;8.032;2023-03-13T05:31:20;13.88;;;7.60;;
60344;SDS011;46188;52.324;8.032;2023-03-13T05:33:46;13.35;;;8.05;;
60344;SDS011;46188;52.324;8.032;2023-03-13T05:36:11;12.80;;;7.80;;
60344;SDS011;46188;52.324;8.032;2023-03-13T05:38:36;13.68;;;8.30;;
60344;SDS011;46188;52.324;8.032;2023-03-13T05:41:01;13.13;;;8.02;;
60344;SDS011;46188;52.324;8.032;2023-03-13T05:43:27;14.50;;;8.35;;
60344;SDS011;46188;52.324;8.032;2023-03-13T05:45:52;14.75;;;8.77;;
60344;SDS011;46188;52.324;8.032;2023-03-13T05:48:17;15.38;;;9.52;;
60344;SDS011;46188;52.324;8.032;2023-03-13T05:50:43;15.90;;;9.50;;
60344;SDS011;46188;52.324;8.032;2023-03-13T05:53:08;19.13;;;9.80;;
60344;SDS011;46188;52.324;8.032;2023-03-13T05:55:33;19.25;;;10.43;;
60344;SDS011;46188;52.324;8.032;2023-03-13T05:57:58;15.93;;;9.48;;
60344;SDS011;46188;52.324;8.032;2023-03-13T06:00:24;18.48;;;10.73;;
60344;SDS011;46188;52.324;8.032;2023-03-13T06:02:49;14.20;;;9.23;;
60344;SDS011;46188;52.324;8.032;2023-03-13T06:05:14;23.40;;;11.38;;
60344;SDS011;46188;52.324;8.032;2023-03-13T06:07:40;22.02;;;11.68;;
60344;SDS011;46188;52.324;8.032;2023-03-13T06:10:05;18.88;;;11.13;;
60344;SDS011;46188;52.324;8.032;2023-03-13T06:12:31;17.02;;;10.95;;
60344;SDS011;46188;52.324;8.032;2023-03-13T06:14:56;17.25;;;10.57;;
60344;SDS011;46188;52.324;8.032;2023-03-13T06:17:21;17.50;;;11.93;;
60344;SDS011;46188;52.324;8.032;2023-03-13T06:19:46;17.67;;;10.55;;
60344;SDS011;46188;52.324;8.032;2023-03-13T06:22:12;19.83;;;12.85;;
60344;SDS011;46188;52.324;8.032;2023-03-13T06:24:37;18.23;;;12.07;;
60344;SDS011;46188;52.324;8.032;2023-03-13T06:27:03;20.15;;;12.63;;
60344;SDS011;46188;52.324;8.032;2023-03-13T06:29:28;15.65;;;11.70;;
60344;SDS011;46188;52.324;8.032;2023-03-13T06:31:53;15.48;;;11.35;;
60344;SDS011;46188;52.324;8.032;2023-03-13T06:34:18;15.50;;;13.02;;
60344;SDS011;46188;52.324;8.032;2023-03-13T06:36:44;14.70;;;10.70;;
60344;SDS011;46188;52.324;8.032;2023-03-13T06:39:10;14.43;;;10.07;;
60344;SDS011;46188;52.324;8.032;2023-03-13T06:41:35;18.48;;;12.02;;
60344;SDS011;46188;52.324;8.032;2023-03-13T06:44:01;15.77;;;11.57;;
60344;SDS011;46188;52.324;8.032;2023-03-13T06:46:26;14.13;;;9.43;;
60344;SDS011;46188;52.324;8.032;2023-03-13T06:48:51;16.92;;;10.43;;
60344;SDS011;46188;52.324;8.032;2023-03-13T06:51:17;14.65;;;10.02;;
60344;SDS011;46188;52.324;8.032;2023-03-13T06:53:44;14.20;;;10.80;;
60344;SDS011;46188;52.324;8.032;2023-03-13T06:56:09;16.20;;;10.77;;
60344;SDS011;46188;52.324;8.032;2023-03-13T06:58:35;13.20;;;10.77;;
60344;SDS011;46188;52.324;8.032;2023-03-13T07:01:07;14.13;;;8.98;;
60344;SDS011;46188;52.324;8.032;2023-03-13T07:03:37;14.30;;;10.88;;
60344;SDS011;46188;52.324;8.032;2023-03-13T07:06:03;12.85;;;10.02;;
60344;SDS011;46188;52.324;8.032;2023-03-13T07:08:29;12.20;;;8.98;;
60344;SDS011;46188;52.324;8.032;2023-03-13T07:10:59;12.10;;;9.18;;
60344;SDS011;46188;52.324;8.032;2023-03-13T07:13:26;10.95;;;9.23;;
60344;SDS011;46188;52.324;8.032;2023-03-13T07:15:52;11.07;;;8.32;;
60344;SDS011;46188;52.324;8.032;2023-03-13T07:18:17;11.80;;;8.50;;
60344;SDS011;46188;52.324;8.032;2023-03-13T07:20:43;11.75;;;7.32;;
60344;SDS011;46188;52.324;8.032;2023-03-13T07:23:08;12.00;;;6.05;;
60344;SDS011;46188;52.324;8.032;2023-03-13T07:25:34;12.27;;;6.78;;
60344;SDS011;46188;52.324;8.032;2023-03-13T07:27:59;8.63;;;6.25;;
60344;SDS011;46188;52.324;8.032;2023-03-13T07:30:25;10.98;;;5.38;;
60344;SDS011;46188;52.324;8.032;2023-03-13T07:32:51;7.38;;;5.47;;
60344;SDS011;46188;52.324;8.032;2023-03-13T07:35:16;7.63;;;4.20;;
60344;SDS011;46188;52.324;8.032;2023-03-13T07:37:41;8.85;;;5.00;;
60344;SDS011;46188;52.324;8.032;2023-03-13T07:40:06;11.77;;;5.35;;
60344;SDS011;46188;52.324;8.032;2023-03-13T07:42:33;7.68;;;4.75;;
60344;SDS011;46188;52.324;8.032;2023-03-13T07:44:58;7.47;;;3.92;;
60344;SDS011;46188;52.324;8.032;2023-03-13T07:47:24;5.65;;;3.88;;
60344;SDS011;46188;52.324;8.032;2023-03-13T07:49:49;9.20;;;4.30;;
60344;SDS011;46188;52.324;8.032;2023-03-13T07:52:14;6.70;;;4.45;;
60344;SDS011;46188;52.324;8.032;2023-03-13T07:54:39;6.13;;;4.30;;
60344;SDS011;46188;52.324;8.032;2023-03-13T07:57:05;7.05;;;4.00;;
60344;SDS011;46188;52.324;8.032;2023-03-13T07:59:30;8.48;;;4.45;;
60344;SDS011;46188;52.324;8.032;2023-03-13T08:01:55;5.80;;;4.28;;
60344;SDS011;46188;52.324;8.032;2023-03-13T08:04:20;7.60;;;4.65;;
60344;SDS011;46188;52.324;8.032;2023-03-13T08:06:46;7.07;;;4.07;;
60344;SDS011;46188;52.324;8.032;2023-03-13T08:09:11;7.03;;;4.53;;
60344;SDS011;46188;52.324;8.032;2023-03-13T08:11:37;9.85;;;4.70;;
60344;SDS011;46188;52.324;8.032;2023-03-13T08:14:08;9.32;;;4.45;;
60344;SDS011;46188;52.324;8.032;2023-03-13T08:16:34;8.90;;;5.05;;
60344;SDS011;46188;52.324;8.032;2023-03-13T08:19:00;8.73;;;4.30;;
60344;SDS011;46188;52.324;8.032;2023-03-13T08:21:29;5.30;;;3.85;;
60344;SDS011;46188;52.324;8.032;2023-03-13T08:24:00;7.53;;;4.25;;
60344;SDS011;46188;52.324;8.032;2023-03-13T08:26:29;7.17;;;3.87;;
60344;SDS011;46188;52.324;8.032;2023-03-13T08:28:56;9.38;;;3.95;;
60344;SDS011;46188;52.324;8.032;2023-03-13T08:31:27;9.73;;;3.88;;
60344;SDS011;46188;52.324;8.032;2023-03-13T08:33:54;8.52;;;4.45;;
60344;SDS011;46188;52.324;8.032;2023-03-13T08:36:24;4.85;;;3.40;;
60344;SDS011;46188;52.324;8.032;2023-03-13T08:38:53;3.80;;;3.22;;
60344;SDS011;46188;52.324;8.032;2023-03-13T08:41:23;7.68;;;3.72;;
60344;SDS011;46188;52.324;8.032;2023-03-13T08:43:53;7.03;;;3.38;;
60344;SDS011;46188;52.324;8.032;2023-03-13T08:46:19;5.32;;;2.95;;
60344;SDS011;46188;52.324;8.032;2023-03-13T08:48:47;7.97;;;3.67;;
60344;SDS011;46188;52.324;8.032;2023-03-13T08:51:16;5.00;;;3.30;;
60344;SDS011;46188;52.324;8.032;2023-03-13T08:53:43;4.78;;;2.65;;
60344;SDS011;46188;52.324;8.032;2023-03-13T08:56:10;3.70;;;2.72;;
60344;SDS011;46188;52.324;8.032;2023-03-13T08:58:37;6.95;;;2.92;;
60344;SDS011;46188;52.324;8.032;2023-03-13T09:01:04;7.22;;;3.47;;
60344;SDS011;46188;52.324;8.032;2023-03-13T09:03:31;6.40;;;2.60;;
60344;SDS011;46188;52.324;8.032;2023-03-13T09:05:57;5.70;;;2.78;;
60344;SDS011;46188;52.324;8.032;2023-03-13T09:08:23;6.68;;;3.08;;
60344;SDS011;46188;52.324;8.032;2023-03-13T09:10:53;3.80;;;2.90;;
60344;SDS011;46188;52.324;8.032;2023-03-13T09:13:23;6.15;;;2.80;;
60344;SDS011;46188;52.324;8.032;2023-03-13T09:15:55;6.90;;;2.95;;
60344;SDS011;46188;52.324;8.032;2023-03-13T09:18:21;7.38;;;3.20;;
60344;SDS011;46188;52.324;8.032;2023-03-13T09:20:46;5.75;;;3.13;;
60344;SDS011;46188;52.324;8.032;2023-03-13T09:23:12;6.93;;;2.72;;
60344;SDS011;46188;52.324;8.032;2023-03-13T09:25:37;5.72;;;2.63;;
60344;SDS011;46188;52.324;8.032;2023-03-13T09:28:03;5.50;;;3.00;;
60344;SDS011;46188;52.324;8.032;2023-03-13T09:30:28;6.68;;;2.97;;
60344;SDS011;46188;52.324;8.032;2023-03-13T09:32:53;6.13;;;2.80;;
60344;SDS011;46188;52.324;8.032;2023-03-13T09:35:19;5.15;;;2.50;;
60344;SDS011;46188;52.324;8.032;2023-03-13T09:37:44;6.90;;;2.25;;
60344;SDS011;46188;52.324;8.032;2023-03-13T09:40:12;4.53;;;2.35;;
60344;SDS011;46188;52.324;8.032;2023-03-13T09:42:43;13.23;;;3.63;;
60344;SDS011;46188;52.324;8.032;2023-03-13T09:45:14;5.30;;;2.05;;
60344;SDS011;46188;52.324;8.032;2023-03-13T09:47:45;5.28;;;2.10;;
60344;SDS011;46188;52.324;8.032;2023-03-13T09:50:20;4.32;;;2.10;;
60344;SDS011;46188;52.324;8.032;2023-03-13T09:52:47;4.15;;;2.00;;
60344;SDS011;46188;52.324;8.032;2023-03-13T09:55:18;7.82;;;2.15;;
60344;SDS011;46188;52.324;8.032;2023-03-13T09:57:53;4.85;;;2.15;;
60344;SDS011;46188;52.324;8.032;2023-03-13T10:05:35;3.92;;;2.17;;
60344;SDS011;46188;52.324;8.032;2023-03-13T10:08:19;9.90;;;2.80;;
60344;SDS011;46188;52.324;8.032;2023-03-13T10:10:57;5.10;;;2.42;;
60344;SDS011;46188;52.324;8.032;2023-03-13T10:16:21;7.15;;;2.05;;
60344;SDS011;46188;52.324;8.032;2023-03-13T10:18:57;8.07;;;2.88;;
60344;SDS011;46188;52.324;8.032;2023-03-13T10:21:31;3.45;;;1.80;;
60344;SDS011;46188;52.324;8.032;2023-03-13T10:24:18;4.72;;;2.10;;
60344;SDS011;46188;52.324;8.032;2023-03-13T10:26:56;5.70;;;1.70;;
60344;SDS011;46188;52.324;8.032;2023-03-13T10:29:25;3.67;;;1.70;;
60344;SDS011;46188;52.324;8.032;2023-03-13T10:32:05;3.35;;;1.92;;
60344;SDS011;46188;52.324;8.032;2023-03-13T10:35:14;2.42;;;1.30;;
60344;SDS011;46188;52.324;8.032;2023-03-13T10:37:25;6.38;;;1.70;;
60344;SDS011;46188;52.324;8.032;2023-03-13T10:39:53;5.13;;;1.80;;
60344;SDS011;46188;52.324;8.032;2023-03-13T10:42:23;3.70;;;1.65;;
60344;SDS011;46188;52.324;8.032;2023-03-13T10:45:02;5.43;;;2.17;;
60344;SDS011;46188;52.324;8.032;2023-03-13T10:47:33;5.82;;;1.83;;
60344;SDS011;46188;52.324;8.032;2023-03-13T10:49:59;5.30;;;1.88;;
60344;SDS011;46188;52.324;8.032;2023-03-13T10:52:27;6.80;;;2.10;;
60344;SDS011;46188;52.324;8.032;2023-03-13T10:55:02;5.60;;;2.10;;
60344;SDS011;46188;52.324;8.032;2023-03-13T10:57:30;4.43;;;1.80;;
60344;SDS011;46188;52.324;8.032;2023-03-13T10:59:58;4.78;;;2.10;;
60344;SDS011;46188;52.324;8.032;2023-03-13T11:02:30;4.75;;;2.10;;
60344;SDS011;46188;52.324;8.032;2023-03-13T11:04:59;4.72;;;1.90;;
60344;SDS011;46188;52.324;8.032;2023-03-13T11:07:27;5.82;;;1.98;;
60344;SDS011;46188;52.324;8.032;2023-03-13T11:10:00;4.13;;;1.65;;
60344;SDS011;46188;52.324;8.032;2023-03-13T11:12:38;3.80;;;1.85;;
60344;SDS011;46188;52.324;8.032;2023-03-13T11:15:12;4.15;;;1.63;;
60344;SDS011;46188;52.324;8.032;2023-03-13T11:17:42;4.80;;;1.80;;
60344;SDS011;46188;52.324;8.032;2023-03-13T11:23:04;4.90;;;1.85;;
60344;SDS011;46188;52.324;8.032;2023-03-13T11:25:59;3.50;;;1.30;;
60344;SDS011;46188;52.324;8.032;2023-03-13T11:31:43;3.00;;;1.35;;
60344;SDS011;46188;52.324;8.032;2023-03-13T11:36:56;3.30;;;1.80;;
60344;SDS011;46188;52.324;8.032;2023-03-13T11:39:35;5.15;;;1.60;;
60344;SDS011;46188;52.324;8.032;2023-03-13T11:59:24;2.92;;;1.52;;
60344;SDS011;46188;52.324;8.032;2023-03-13T12:04:54;5.53;;;2.25;;
60344;SDS011;46188;52.324;8.032;2023-03-13T12:07:24;2.97;;;1.40;;
60344;SDS011;46188;52.324;8.032;2023-03-13T12:10:01;5.15;;;1.42;;
60344;SDS011;46188;52.324;8.032;2023-03-13T12:12:38;3.10;;;1.25;;
60344;SDS011;46188;52.324;8.032;2023-03-13T12:15:21;2.08;;;1.13;;
60344;SDS011;46188;52.324;8.032;2023-03-13T12:17:58;6.63;;;1.50;;
60344;SDS011;46188;52.324;8.032;2023-03-13T12:20:38;4.40;;;1.57;;
60344;SDS011;46188;52.324;8.032;2023-03-13T12:25:48;2.83;;;1.20;;
60344;SDS011;46188;52.324;8.032;2023-03-13T12:28:53;8.93;;;1.55;;
60344;SDS011;46188;52.324;8.032;2023-03-13T12:31:34;3.05;;;1.35;;
60344;SDS011;46188;52.324;8.032;2023-03-13T12:37:27;2.75;;;1.52;;
60344;SDS011;46188;52.324;8.032;2023-03-13T12:40:00;2.42;;;1.20;;
60344;SDS011;46188;52.324;8.032;2023-03-13T12:42:39;2.85;;;1.23;;
60344;SDS011;46188;52.324;8.032;2023-03-13T12:45:25;2.25;;;1.90;;
60344;SDS011;46188;52.324;8.032;2023-03-13T12:53:39;3.15;;;1.10;;
60344;SDS011;46188;52.324;8.032;2023-03-13T12:59:14;4.18;;;1.33;;
60344;SDS011;46188;52.324;8.032;2023-03-13T13:01:44;3.03;;;1.40;;
60344;SDS011;46188;52.324;8.032;2023-03-13T13:06:49;2.05;;;1.67;;
60344;SDS011;46188;52.324;8.032;2023-03-13T13:09:24;7.05;;;1.63;;
60344;SDS011;46188;52.324;8.032;2023-03-13T13:11:52;3.25;;;1.60;;
60344;SDS011;46188;52.324;8.032;2023-03-13T13:16:48;10.37;;;1.40;;
60344;SDS011;46188;52.324;8.032;2023-03-13T13:22:42;4.03;;;1.50;;
60344;SDS011;46188;52.324;8.032;2023-03-13T13:24:51;3.15;;;1.95;;
60344;SDS011;46188;52.324;8.032;2023-03-13T13:29:55;9.05;;;1.95;;
60344;SDS011;46188;52.324;8.032;2023-03-13T13:32:28;4.65;;;1.60;;
60344;SDS011;46188;52.324;8.032;2023-03-13T13:35:21;2.10;;;1.48;;
60344;SDS011;46188;52.324;8.032;2023-03-13T13:37:49;4.68;;;1.88;;
60344;SDS011;46188;52.324;8.032;2023-03-13T13:40:17;2.65;;;1.50;;
60344;SDS011;46188;52.324;8.032;2023-03-13T13:47:49;1.60;;;1.45;;
60344;SDS011;46188;52.324;8.032;2023-03-13T13:50:35;7.82;;;2.47;;
60344;SDS011;46188;52.324;8.032;2023-03-13T13:55:52;2.00;;;1.63;;
60344;SDS011;46188;52.324;8.032;2023-03-13T13:58:21;2.20;;;1.40;;
60344;SDS011;46188;52.324;8.032;2023-03-13T14:00:52;3.55;;;1.63;;
60344;SDS011;46188;52.324;8.032;2023-03-13T14:03:26;6.72;;;1.55;;
60344;SDS011;46188;52.324;8.032;2023-03-13T14:06:00;4.80;;;1.42;;
60344;SDS011;46188;52.324;8.032;2023-03-13T14:08:28;2.22;;;1.95;;
60344;SDS011;46188;52.324;8.032;2023-03-13T14:14:09;5.63;;;1.70;;
60344;SDS011;46188;52.324;8.032;2023-03-13T14:16:48;2.38;;;1.83;;
60344;SDS011;46188;52.324;8.032;2023-03-13T14:19:26;2.05;;;1.60;;
60344;SDS011;46188;52.324;8.032;2023-03-13T14:22:05;2.00;;;1.80;;
60344;SDS011;46188;52.324;8.032;2023-03-13T14:24:33;4.38;;;1.95;;
60344;SDS011;46188;52.324;8.032;2023-03-13T14:26:59;5.70;;;1.70;;
60344;SDS011;46188;52.324;8.032;2023-03-13T14:29:25;7.70;;;1.85;;
60344;SDS011;46188;52.324;8.032;2023-03-13T14:31:57;3.38;;;1.55;;
60344;SDS011;46188;52.324;8.032;2023-03-13T14:34:23;2.05;;;1.40;;
60344;SDS011;46188;52.324;8.032;2023-03-13T14:42:03;7.78;;;1.83;;
60344;SDS011;46188;52.324;8.032;2023-03-13T14:44:33;2.30;;;1.23;;
60344;SDS011;46188;52.324;8.032;2023-03-13T14:47:00;2.75;;;1.48;;
60344;SDS011;46188;52.324;8.032;2023-03-13T14:49:29;4.03;;;1.40;;
60344;SDS011;46188;52.324;8.032;2023-03-13T14:54:50;6.65;;;1.58;;
60344;SDS011;46188;52.324;8.032;2023-03-13T14:57:19;3.88;;;1.50;;
60344;SDS011;46188;52.324;8.032;2023-03-13T14:59:46;1.92;;;1.42;;
60344;SDS011;46188;52.324;8.032;2023-03-13T15:02:14;3.22;;;1.30;;
60344;SDS011;46188;52.324;8.032;2023-03-13T15:05:02;2.55;;;1.35;;
60344;SDS011;46188;52.324;8.032;2023-03-13T15:07:38;3.00;;;1.30;;
60344;SDS011;46188;52.324;8.032;2023-03-13T15:13:22;3.42;;;1.75;;
60344;SDS011;46188;52.324;8.032;2023-03-13T15:15:56;3.80;;;1.45;;
60344;SDS011;46188;52.324;8.032;2023-03-13T15:18:23;5.75;;;1.63;;
60344;SDS011;46188;52.324;8.032;2023-03-13T15:23:37;5.90;;;1.42;;
60344;SDS011;46188;52.324;8.032;2023-03-13T15:26:03;4.53;;;2.80;;
60344;SDS011;46188;52.324;8.032;2023-03-13T15:28:29;4.32;;;1.52;;
60344;SDS011;46188;52.324;8.032;2023-03-13T15:30:55;2.95;;;1.50;;
60344;SDS011;46188;52.324;8.032;2023-03-13T15:33:21;2.33;;;1.38;;
60344;SDS011;46188;52.324;8.032;2023-03-13T15:35:47;2.40;;;1.48;;
60344;SDS011;46188;52.324;8.032;2023-03-13T15:38:21;3.47;;;1.70;;
60344;SDS011;46188;52.324;8.032;2023-03-13T15:40:48;2.05;;;1.15;;
60344;SDS011;46188;52.324;8.032;2023-03-13T15:43:14;2.65;;;1.20;;
60344;SDS011;46188;52.324;8.032;2023-03-13T15:45:40;1.60;;;1.15;;
60344;SDS011;46188;52.324;8.032;2023-03-13T15:48:14;2.58;;;1.20;;
60344;SDS011;46188;52.324;8.032;2023-03-13T15:50:52;2.40;;;1.30;;
60344;SDS011;46188;52.324;8.032;2023-03-13T15:53:19;3.22;;;1.25;;
60344;SDS011;46188;52.324;8.032;2023-03-13T15:55:47;4.43;;;1.58;;
60344;SDS011;46188;52.324;8.032;2023-03-13T15:58:13;3.03;;;1.30;;
60344;SDS011;46188;52.324;8.032;2023-03-13T16:00:40;2.78;;;1.48;;
60344;SDS011;46188;52.324;8.032;2023-03-13T16:03:07;2.60;;;1.40;;
60344;SDS011;46188;52.324;8.032;2023-03-13T16:05:37;1.65;;;1.25;;
60344;SDS011;46188;52.324;8.032;2023-03-13T16:08:03;3.00;;;1.60;;
60344;SDS011;46188;52.324;8.032;2023-03-13T16:10:30;2.75;;;1.30;;
60344;SDS011;46188;52.324;8.032;2023-03-13T16:12:58;3.83;;;1.33;;
60344;SDS011;46188;52.324;8.032;2023-03-13T16:15:23;1.80;;;1.20;;
60344;SDS011;46188;52.324;8.032;2023-03-13T16:17:49;1.50;;;1.20;;
60344;SDS011;46188;52.324;8.032;2023-03-13T16:20:16;6.47;;;1.23;;
60344;SDS011;46188;52.324;8.032;2023-03-13T16:22:43;3.05;;;1.20;;